sensor_id;sensor_type;location;lat;lon;timestamp;P1;durP1;ratioP1;P2;durP2;ratioP2
46651;SDS011;32377;52.182;5.398;2022-10-16T00:00:53;5.68;;;2.38;;
46651;SDS011;32377;52.182;5.398;2022-10-16T00:03:18;9.82;;;2.58;;
46651;SDS011;32377;52.182;5.398;2022-10-16T00:05:44;6.28;;;2.30;;
46651;SDS011;32377;52.182;5.398;2022-10-16T00:08:11;8.13;;;2.63;;
46651;SDS011;32377;52.182;5.398;2022-10-16T00:10:37;8.45;;;2.38;;
46651;SDS011;32377;52.182;5.398;2022-10-16T00:13:03;5.15;;;2.47;;
46651;SDS011;32377;52.182;5.398;2022-10-16T00:15:29;11.85;;;2.83;;
46651;SDS011;32377;52.182;5.398;2022-10-16T00:17:55;7.53;;;2.70;;
46651;SDS011;32377;52.182;5.398;2022-10-16T00:20:21;5.75;;;2.40;;
46651;SDS011;32377;52.182;5.398;2022-10-16T00:22:46;9.43;;;2.25;;
46651;SDS011;32377;52.182;5.398;2022-10-16T00:25:12;13.43;;;2.58;;
46651;SDS011;32377;52.182;5.398;2022-10-16T00:27:37;8.40;;;2.50;;
46651;SDS011;32377;52.182;5.398;2022-10-16T00:30:03;11.27;;;2.42;;
46651;SDS011;32377;52.182;5.398;2022-10-16T00:32:29;7.82;;;2.50;;
46651;SDS011;32377;52.182;5.398;2022-10-16T00:34:55;5.28;;;2.35;;
46651;SDS011;32377;52.182;5.398;2022-10-16T00:37:21;6.57;;;2.72;;
46651;SDS011;32377;52.182;5.398;2022-10-16T00:39:46;6.93;;;2.80;;
46651;SDS011;32377;52.182;5.398;2022-10-16T00:42:16;6.00;;;2.42;;
46651;SDS011;32377;52.182;5.398;2022-10-16T00:49:51;8.13;;;3.05;;
46651;SDS011;32377;52.182;5.398;2022-10-16T00:52:23;14.82;;;2.97;;
46651;SDS011;32377;52.182;5.398;2022-10-16T00:54:49;6.50;;;2.95;;
46651;SDS011;32377;52.182;5.398;2022-10-16T00:57:17;9.57;;;2.90;;
46651;SDS011;32377;52.182;5.398;2022-10-16T00:59:42;8.65;;;3.30;;
46651;SDS011;32377;52.182;5.398;2022-10-16T01:02:11;6.20;;;2.90;;
46651;SDS011;32377;52.182;5.398;2022-10-16T01:04:39;8.88;;;2.97;;
46651;SDS011;32377;52.182;5.398;2022-10-16T01:12:46;7.43;;;2.80;;
46651;SDS011;32377;52.182;5.398;2022-10-16T01:15:39;8.18;;;2.72;;
46651;SDS011;32377;52.182;5.398;2022-10-16T01:21:08;7.15;;;2.95;;
46651;SDS011;32377;52.182;5.398;2022-10-16T01:32:39;6.13;;;2.80;;
46651;SDS011;32377;52.182;5.398;2022-10-16T01:40:28;8.45;;;2.75;;
46651;SDS011;32377;52.182;5.398;2022-10-16T01:42:56;9.27;;;3.15;;
46651;SDS011;32377;52.182;5.398;2022-10-16T01:45:26;8.75;;;3.03;;
46651;SDS011;32377;52.182;5.398;2022-10-16T01:47:54;7.45;;;3.03;;
46651;SDS011;32377;52.182;5.398;2022-10-16T01:50:20;7.82;;;3.45;;
46651;SDS011;32377;52.182;5.398;2022-10-16T01:52:48;7.07;;;3.00;;
46651;SDS011;32377;52.182;5.398;2022-10-16T01:55:18;6.60;;;2.85;;
46651;SDS011;32377;52.182;5.398;2022-10-16T01:57:49;10.15;;;3.55;;
46651;SDS011;32377;52.182;5.398;2022-10-16T02:00:17;9.00;;;3.55;;
46651;SDS011;32377;52.182;5.398;2022-10-16T02:02:46;12.27;;;2.90;;
46651;SDS011;32377;52.182;5.398;2022-10-16T02:05:16;10.48;;;3.00;;
46651;SDS011;32377;52.182;5.398;2022-10-16T02:07:53;5.25;;;3.42;;
46651;SDS011;32377;52.182;5.398;2022-10-16T02:10:19;5.43;;;3.08;;
46651;SDS011;32377;52.182;5.398;2022-10-16T02:12:46;10.40;;;3.63;;
46651;SDS011;32377;52.182;5.398;2022-10-16T02:15:19;8.43;;;3.85;;
46651;SDS011;32377;52.182;5.398;2022-10-16T02:17:44;9.32;;;3.70;;
46651;SDS011;32377;52.182;5.398;2022-10-16T02:20:10;11.23;;;3.88;;
46651;SDS011;32377;52.182;5.398;2022-10-16T02:22:38;11.07;;;3.97;;
46651;SDS011;32377;52.182;5.398;2022-10-16T02:25:10;8.00;;;4.55;;
46651;SDS011;32377;52.182;5.398;2022-10-16T02:27:52;9.40;;;4.15;;
46651;SDS011;32377;52.182;5.398;2022-10-16T02:33:13;7.55;;;3.33;;
46651;SDS011;32377;52.182;5.398;2022-10-16T02:35:40;6.95;;;3.72;;
46651;SDS011;32377;52.182;5.398;2022-10-16T02:38:08;9.93;;;3.72;;
46651;SDS011;32377;52.182;5.398;2022-10-16T02:40:34;9.73;;;3.35;;
46651;SDS011;32377;52.182;5.398;2022-10-16T02:43:02;7.03;;;4.05;;
46651;SDS011;32377;52.182;5.398;2022-10-16T02:45:28;10.18;;;4.50;;
46651;SDS011;32377;52.182;5.398;2022-10-16T02:47:54;7.38;;;4.10;;
46651;SDS011;32377;52.182;5.398;2022-10-16T02:50:20;10.13;;;3.80;;
46651;SDS011;32377;52.182;5.398;2022-10-16T02:52:46;6.60;;;3.42;;
46651;SDS011;32377;52.182;5.398;2022-10-16T02:55:11;8.13;;;3.88;;
46651;SDS011;32377;52.182;5.398;2022-10-16T02:57:37;9.02;;;3.47;;
46651;SDS011;32377;52.182;5.398;2022-10-16T03:00:05;6.07;;;3.38;;
46651;SDS011;32377;52.182;5.398;2022-10-16T03:02:32;6.90;;;3.70;;
46651;SDS011;32377;52.182;5.398;2022-10-16T03:04:57;7.80;;;3.97;;
46651;SDS011;32377;52.182;5.398;2022-10-16T03:07:23;6.30;;;3.40;;
46651;SDS011;32377;52.182;5.398;2022-10-16T03:09:48;5.47;;;3.17;;
46651;SDS011;32377;52.182;5.398;2022-10-16T03:12:14;9.52;;;3.08;;
46651;SDS011;32377;52.182;5.398;2022-10-16T03:14:39;9.90;;;3.70;;
46651;SDS011;32377;52.182;5.398;2022-10-16T03:17:05;6.60;;;3.08;;
46651;SDS011;32377;52.182;5.398;2022-10-16T03:19:31;5.40;;;3.10;;
46651;SDS011;32377;52.182;5.398;2022-10-16T03:21:57;7.75;;;3.40;;
46651;SDS011;32377;52.182;5.398;2022-10-16T03:24:22;6.45;;;3.30;;
46651;SDS011;32377;52.182;5.398;2022-10-16T03:26:48;6.55;;;3.17;;
46651;SDS011;32377;52.182;5.398;2022-10-16T03:29:13;12.50;;;3.35;;
46651;SDS011;32377;52.182;5.398;2022-10-16T03:31:39;4.97;;;3.35;;
46651;SDS011;32377;52.182;5.398;2022-10-16T03:34:05;8.55;;;3.42;;
46651;SDS011;32377;52.182;5.398;2022-10-16T03:36:30;7.90;;;3.65;;
46651;SDS011;32377;52.182;5.398;2022-10-16T03:38:56;7.35;;;3.00;;
46651;SDS011;32377;52.182;5.398;2022-10-16T03:41:22;5.05;;;3.38;;
46651;SDS011;32377;52.182;5.398;2022-10-16T03:43:47;6.38;;;3.03;;
46651;SDS011;32377;52.182;5.398;2022-10-16T03:46:13;3.95;;;2.92;;
46651;SDS011;32377;52.182;5.398;2022-10-16T03:48:38;6.15;;;2.90;;
46651;SDS011;32377;52.182;5.398;2022-10-16T03:51:05;6.50;;;3.13;;
46651;SDS011;32377;52.182;5.398;2022-10-16T03:53:30;4.93;;;2.50;;
46651;SDS011;32377;52.182;5.398;2022-10-16T03:55:56;9.20;;;3.10;;
46651;SDS011;32377;52.182;5.398;2022-10-16T03:58:22;7.82;;;2.85;;
46651;SDS011;32377;52.182;5.398;2022-10-16T04:00:47;9.35;;;3.03;;
46651;SDS011;32377;52.182;5.398;2022-10-16T04:03:13;7.32;;;3.10;;
46651;SDS011;32377;52.182;5.398;2022-10-16T04:05:39;4.10;;;2.67;;
46651;SDS011;32377;52.182;5.398;2022-10-16T04:08:05;5.80;;;3.00;;
46651;SDS011;32377;52.182;5.398;2022-10-16T04:10:30;7.78;;;3.45;;
46651;SDS011;32377;52.182;5.398;2022-10-16T04:12:56;6.80;;;2.92;;
46651;SDS011;32377;52.182;5.398;2022-10-16T04:15:22;6.68;;;2.60;;
46651;SDS011;32377;52.182;5.398;2022-10-16T04:17:49;7.50;;;2.60;;
46651;SDS011;32377;52.182;5.398;2022-10-16T04:20:15;6.07;;;2.80;;
46651;SDS011;32377;52.182;5.398;2022-10-16T04:22:41;5.07;;;2.60;;
46651;SDS011;32377;52.182;5.398;2022-10-16T04:25:07;7.07;;;3.17;;
46651;SDS011;32377;52.182;5.398;2022-10-16T04:27:32;7.78;;;2.88;;
46651;SDS011;32377;52.182;5.398;2022-10-16T04:29:58;4.40;;;2.97;;
46651;SDS011;32377;52.182;5.398;2022-10-16T04:32:24;6.75;;;2.97;;
46651;SDS011;32377;52.182;5.398;2022-10-16T04:34:50;5.25;;;2.47;;
46651;SDS011;32377;52.182;5.398;2022-10-16T04:37:16;6.63;;;2.30;;
46651;SDS011;32377;52.182;5.398;2022-10-16T04:39:41;7.10;;;2.80;;
46651;SDS011;32377;52.182;5.398;2022-10-16T04:42:07;9.48;;;2.88;;
46651;SDS011;32377;52.182;5.398;2022-10-16T04:44:33;5.57;;;2.40;;
46651;SDS011;32377;52.182;5.398;2022-10-16T04:46:58;12.05;;;3.42;;
46651;SDS011;32377;52.182;5.398;2022-10-16T04:49:24;8.57;;;2.83;;
46651;SDS011;32377;52.182;5.398;2022-10-16T04:51:49;8.38;;;2.97;;
46651;SDS011;32377;52.182;5.398;2022-10-16T04:54:15;2.72;;;2.28;;
46651;SDS011;32377;52.182;5.398;2022-10-16T04:56:40;5.55;;;2.63;;
46651;SDS011;32377;52.182;5.398;2022-10-16T04:59:12;6.93;;;2.63;;
46651;SDS011;32377;52.182;5.398;2022-10-16T05:01:39;4.07;;;2.67;;
46651;SDS011;32377;52.182;5.398;2022-10-16T05:04:05;4.85;;;2.65;;
46651;SDS011;32377;52.182;5.398;2022-10-16T05:06:31;4.18;;;2.47;;
46651;SDS011;32377;52.182;5.398;2022-10-16T05:08:57;7.10;;;3.47;;
46651;SDS011;32377;52.182;5.398;2022-10-16T05:11:22;4.15;;;2.45;;
46651;SDS011;32377;52.182;5.398;2022-10-16T05:13:48;6.32;;;2.60;;
46651;SDS011;32377;52.182;5.398;2022-10-16T05:16:13;4.45;;;2.70;;
46651;SDS011;32377;52.182;5.398;2022-10-16T05:18:42;5.72;;;2.70;;
46651;SDS011;32377;52.182;5.398;2022-10-16T05:21:08;4.30;;;2.72;;
46651;SDS011;32377;52.182;5.398;2022-10-16T05:23:33;3.60;;;2.55;;
46651;SDS011;32377;52.182;5.398;2022-10-16T05:25:59;7.03;;;2.90;;
46651;SDS011;32377;52.182;5.398;2022-10-16T05:28:26;9.55;;;2.70;;
46651;SDS011;32377;52.182;5.398;2022-10-16T05:30:53;8.35;;;3.30;;
46651;SDS011;32377;52.182;5.398;2022-10-16T05:33:19;5.13;;;2.95;;
46651;SDS011;32377;52.182;5.398;2022-10-16T05:35:46;4.40;;;2.65;;
46651;SDS011;32377;52.182;5.398;2022-10-16T05:38:12;5.15;;;2.55;;
46651;SDS011;32377;52.182;5.398;2022-10-16T05:40:37;8.02;;;3.38;;
46651;SDS011;32377;52.182;5.398;2022-10-16T05:43:03;4.63;;;2.75;;
46651;SDS011;32377;52.182;5.398;2022-10-16T05:45:29;8.18;;;3.10;;
46651;SDS011;32377;52.182;5.398;2022-10-16T05:47:55;9.48;;;3.50;;
46651;SDS011;32377;52.182;5.398;2022-10-16T05:50:20;9.38;;;3.58;;
46651;SDS011;32377;52.182;5.398;2022-10-16T05:52:46;4.95;;;2.78;;
46651;SDS011;32377;52.182;5.398;2022-10-16T05:55:11;8.88;;;3.33;;
46651;SDS011;32377;52.182;5.398;2022-10-16T05:57:37;9.88;;;3.70;;
46651;SDS011;32377;52.182;5.398;2022-10-16T06:00:03;11.60;;;3.38;;
46651;SDS011;32377;52.182;5.398;2022-10-16T06:02:30;5.95;;;2.83;;
46651;SDS011;32377;52.182;5.398;2022-10-16T06:04:55;6.18;;;3.58;;
46651;SDS011;32377;52.182;5.398;2022-10-16T06:07:21;6.38;;;3.08;;
46651;SDS011;32377;52.182;5.398;2022-10-16T06:09:51;7.15;;;3.15;;
46651;SDS011;32377;52.182;5.398;2022-10-16T06:12:17;9.00;;;3.38;;
46651;SDS011;32377;52.182;5.398;2022-10-16T06:14:44;11.23;;;3.53;;
46651;SDS011;32377;52.182;5.398;2022-10-16T06:17:10;11.48;;;3.22;;
46651;SDS011;32377;52.182;5.398;2022-10-16T06:19:35;10.60;;;3.70;;
46651;SDS011;32377;52.182;5.398;2022-10-16T06:22:03;7.75;;;3.17;;
46651;SDS011;32377;52.182;5.398;2022-10-16T06:24:29;7.47;;;3.78;;
46651;SDS011;32377;52.182;5.398;2022-10-16T06:26:55;7.32;;;3.80;;
46651;SDS011;32377;52.182;5.398;2022-10-16T06:29:20;9.63;;;3.55;;
46651;SDS011;32377;52.182;5.398;2022-10-16T06:31:46;7.55;;;3.55;;
46651;SDS011;32377;52.182;5.398;2022-10-16T06:34:11;12.23;;;3.70;;
46651;SDS011;32377;52.182;5.398;2022-10-16T06:36:37;8.85;;;3.97;;
46651;SDS011;32377;52.182;5.398;2022-10-16T06:39:03;9.05;;;4.63;;
46651;SDS011;32377;52.182;5.398;2022-10-16T06:41:30;7.50;;;3.88;;
46651;SDS011;32377;52.182;5.398;2022-10-16T06:43:56;8.43;;;3.47;;
46651;SDS011;32377;52.182;5.398;2022-10-16T06:46:22;8.25;;;3.97;;
46651;SDS011;32377;52.182;5.398;2022-10-16T06:48:49;7.75;;;3.60;;
46651;SDS011;32377;52.182;5.398;2022-10-16T06:51:16;10.65;;;3.90;;
46651;SDS011;32377;52.182;5.398;2022-10-16T06:53:53;10.27;;;4.45;;
46651;SDS011;32377;52.182;5.398;2022-10-16T06:56:22;7.20;;;3.72;;
46651;SDS011;32377;52.182;5.398;2022-10-16T06:58:49;10.30;;;3.80;;
46651;SDS011;32377;52.182;5.398;2022-10-16T07:01:16;9.20;;;3.97;;
46651;SDS011;32377;52.182;5.398;2022-10-16T07:03:43;9.23;;;4.38;;
46651;SDS011;32377;52.182;5.398;2022-10-16T07:06:11;9.23;;;4.50;;
46651;SDS011;32377;52.182;5.398;2022-10-16T07:08:39;12.05;;;4.18;;
46651;SDS011;32377;52.182;5.398;2022-10-16T07:11:07;9.05;;;4.40;;
46651;SDS011;32377;52.182;5.398;2022-10-16T07:13:37;10.10;;;3.42;;
46651;SDS011;32377;52.182;5.398;2022-10-16T07:16:09;8.43;;;2.95;;
46651;SDS011;32377;52.182;5.398;2022-10-16T07:18:36;7.00;;;3.30;;
46651;SDS011;32377;52.182;5.398;2022-10-16T07:21:07;7.95;;;3.05;;
46651;SDS011;32377;52.182;5.398;2022-10-16T07:23:44;7.03;;;2.78;;
46651;SDS011;32377;52.182;5.398;2022-10-16T07:26:10;9.90;;;3.40;;
46651;SDS011;32377;52.182;5.398;2022-10-16T07:28:36;9.18;;;2.67;;
46651;SDS011;32377;52.182;5.398;2022-10-16T07:31:03;11.35;;;3.33;;
46651;SDS011;32377;52.182;5.398;2022-10-16T07:33:36;6.57;;;2.65;;
46651;SDS011;32377;52.182;5.398;2022-10-16T07:36:03;6.50;;;2.60;;
46651;SDS011;32377;52.182;5.398;2022-10-16T07:38:29;8.32;;;2.78;;
46651;SDS011;32377;52.182;5.398;2022-10-16T07:40:55;4.30;;;2.53;;
46651;SDS011;32377;52.182;5.398;2022-10-16T07:43:25;6.65;;;2.67;;
46651;SDS011;32377;52.182;5.398;2022-10-16T07:45:52;7.18;;;2.63;;
46651;SDS011;32377;52.182;5.398;2022-10-16T07:48:18;7.05;;;2.47;;
46651;SDS011;32377;52.182;5.398;2022-10-16T07:50:44;6.50;;;2.45;;
46651;SDS011;32377;52.182;5.398;2022-10-16T07:53:10;7.03;;;2.15;;
46651;SDS011;32377;52.182;5.398;2022-10-16T07:55:36;4.90;;;2.25;;
46651;SDS011;32377;52.182;5.398;2022-10-16T07:58:02;7.50;;;2.30;;
46651;SDS011;32377;52.182;5.398;2022-10-16T08:00:28;6.97;;;2.67;;
46651;SDS011;32377;52.182;5.398;2022-10-16T08:02:53;3.53;;;2.20;;
46651;SDS011;32377;52.182;5.398;2022-10-16T08:05:19;4.72;;;2.45;;
46651;SDS011;32377;52.182;5.398;2022-10-16T08:07:48;14.65;;;3.42;;
46651;SDS011;32377;52.182;5.398;2022-10-16T08:10:17;7.72;;;3.40;;
46651;SDS011;32377;52.182;5.398;2022-10-16T08:12:44;7.97;;;3.10;;
46651;SDS011;32377;52.182;5.398;2022-10-16T08:15:10;8.13;;;3.35;;
46651;SDS011;32377;52.182;5.398;2022-10-16T08:17:36;10.40;;;3.70;;
46651;SDS011;32377;52.182;5.398;2022-10-16T08:20:02;7.28;;;3.38;;
46651;SDS011;32377;52.182;5.398;2022-10-16T08:22:28;7.97;;;3.63;;
46651;SDS011;32377;52.182;5.398;2022-10-16T08:24:54;7.13;;;4.00;;
46651;SDS011;32377;52.182;5.398;2022-10-16T08:27:20;8.07;;;3.45;;
46651;SDS011;32377;52.182;5.398;2022-10-16T08:29:45;9.70;;;3.92;;
46651;SDS011;32377;52.182;5.398;2022-10-16T08:32:11;12.00;;;3.35;;
46651;SDS011;32377;52.182;5.398;2022-10-16T08:34:37;6.25;;;3.10;;
46651;SDS011;32377;52.182;5.398;2022-10-16T08:37:02;7.78;;;3.00;;
46651;SDS011;32377;52.182;5.398;2022-10-16T08:39:28;6.07;;;3.30;;
46651;SDS011;32377;52.182;5.398;2022-10-16T08:50:09;7.97;;;3.05;;
46651;SDS011;32377;52.182;5.398;2022-10-16T08:52:39;8.98;;;3.28;;
46651;SDS011;32377;52.182;5.398;2022-10-16T08:55:16;10.60;;;3.13;;
46651;SDS011;32377;52.182;5.398;2022-10-16T08:57:49;10.25;;;2.83;;
46651;SDS011;32377;52.182;5.398;2022-10-16T09:00:14;11.48;;;3.45;;
46651;SDS011;32377;52.182;5.398;2022-10-16T09:02:45;9.20;;;2.70;;
46651;SDS011;32377;52.182;5.398;2022-10-16T09:08:28;9.75;;;2.65;;
46651;SDS011;32377;52.182;5.398;2022-10-16T09:11:15;12.55;;;3.03;;
46651;SDS011;32377;52.182;5.398;2022-10-16T09:13:58;12.88;;;2.65;;
46651;SDS011;32377;52.182;5.398;2022-10-16T09:16:41;9.15;;;2.50;;
46651;SDS011;32377;52.182;5.398;2022-10-16T09:19:16;7.90;;;2.60;;
46651;SDS011;32377;52.182;5.398;2022-10-16T09:21:46;16.02;;;2.55;;
46651;SDS011;32377;52.182;5.398;2022-10-16T09:24:17;11.80;;;2.38;;
46651;SDS011;32377;52.182;5.398;2022-10-16T09:26:44;14.63;;;2.83;;
46651;SDS011;32377;52.182;5.398;2022-10-16T09:29:11;13.02;;;2.55;;
46651;SDS011;32377;52.182;5.398;2022-10-16T09:31:38;8.23;;;2.10;;
46651;SDS011;32377;52.182;5.398;2022-10-16T09:34:05;12.63;;;2.28;;
46651;SDS011;32377;52.182;5.398;2022-10-16T09:36:39;7.93;;;2.10;;
46651;SDS011;32377;52.182;5.398;2022-10-16T09:39:08;10.00;;;2.70;;
46651;SDS011;32377;52.182;5.398;2022-10-16T09:41:39;14.15;;;3.15;;
46651;SDS011;32377;52.182;5.398;2022-10-16T09:47:02;12.27;;;2.50;;
46651;SDS011;32377;52.182;5.398;2022-10-16T09:49:38;14.25;;;2.72;;
46651;SDS011;32377;52.182;5.398;2022-10-16T09:52:13;11.48;;;2.90;;
46651;SDS011;32377;52.182;5.398;2022-10-16T09:54:50;12.55;;;2.60;;
46651;SDS011;32377;52.182;5.398;2022-10-16T09:57:16;10.30;;;2.50;;
46651;SDS011;32377;52.182;5.398;2022-10-16T09:59:46;16.25;;;3.55;;
46651;SDS011;32377;52.182;5.398;2022-10-16T10:02:13;14.93;;;2.92;;
46651;SDS011;32377;52.182;5.398;2022-10-16T10:04:51;13.40;;;2.83;;
46651;SDS011;32377;52.182;5.398;2022-10-16T10:07:30;10.50;;;3.22;;
46651;SDS011;32377;52.182;5.398;2022-10-16T10:09:58;15.05;;;2.35;;
46651;SDS011;32377;52.182;5.398;2022-10-16T10:12:29;17.90;;;3.28;;
46651;SDS011;32377;52.182;5.398;2022-10-16T10:15:12;11.63;;;2.75;;
46651;SDS011;32377;52.182;5.398;2022-10-16T10:17:45;17.10;;;2.90;;
46651;SDS011;32377;52.182;5.398;2022-10-16T10:22:56;13.23;;;3.03;;
46651;SDS011;32377;52.182;5.398;2022-10-16T10:28:17;14.95;;;3.10;;
46651;SDS011;32377;52.182;5.398;2022-10-16T10:42:00;20.25;;;6.15;;
46651;SDS011;32377;52.182;5.398;2022-10-16T10:50:27;12.10;;;2.55;;
46651;SDS011;32377;52.182;5.398;2022-10-16T10:56:00;11.45;;;2.45;;
46651;SDS011;32377;52.182;5.398;2022-10-16T10:59:24;15.60;;;2.65;;
46651;SDS011;32377;52.182;5.398;2022-10-16T11:02:35;13.98;;;3.08;;
46651;SDS011;32377;52.182;5.398;2022-10-16T11:05:31;12.80;;;2.80;;
46651;SDS011;32377;52.182;5.398;2022-10-16T11:08:11;11.90;;;2.70;;
46651;SDS011;32377;52.182;5.398;2022-10-16T11:13:20;11.82;;;2.42;;
46651;SDS011;32377;52.182;5.398;2022-10-16T11:16:11;7.40;;;2.28;;
46651;SDS011;32377;52.182;5.398;2022-10-16T11:18:47;17.77;;;3.15;;
46651;SDS011;32377;52.182;5.398;2022-10-16T11:21:20;12.32;;;2.75;;
46651;SDS011;32377;52.182;5.398;2022-10-16T11:26:27;13.95;;;2.53;;
46651;SDS011;32377;52.182;5.398;2022-10-16T11:28:57;14.07;;;2.85;;
46651;SDS011;32377;52.182;5.398;2022-10-16T11:31:28;14.27;;;3.28;;
46651;SDS011;32377;52.182;5.398;2022-10-16T11:41:52;10.20;;;2.35;;
46651;SDS011;32377;52.182;5.398;2022-10-16T11:47:15;11.15;;;2.60;;
46651;SDS011;32377;52.182;5.398;2022-10-16T11:49:44;14.60;;;2.60;;
46651;SDS011;32377;52.182;5.398;2022-10-16T11:52:33;9.13;;;2.22;;
46651;SDS011;32377;52.182;5.398;2022-10-16T11:57:53;10.05;;;1.83;;
46651;SDS011;32377;52.182;5.398;2022-10-16T12:00:28;7.05;;;2.30;;
46651;SDS011;32377;52.182;5.398;2022-10-16T12:03:19;11.88;;;2.30;;
46651;SDS011;32377;52.182;5.398;2022-10-16T12:06:12;16.40;;;2.45;;
46651;SDS011;32377;52.182;5.398;2022-10-16T12:08:52;11.00;;;2.45;;
46651;SDS011;32377;52.182;5.398;2022-10-16T12:13:47;12.23;;;2.20;;
46651;SDS011;32377;52.182;5.398;2022-10-16T12:18:39;12.82;;;2.45;;
46651;SDS011;32377;52.182;5.398;2022-10-16T12:21:06;14.68;;;2.88;;
46651;SDS011;32377;52.182;5.398;2022-10-16T12:23:49;11.07;;;2.38;;
46651;SDS011;32377;52.182;5.398;2022-10-16T12:28:52;12.90;;;2.53;;
46651;SDS011;32377;52.182;5.398;2022-10-16T12:31:19;9.45;;;2.45;;
46651;SDS011;32377;52.182;5.398;2022-10-16T12:34:01;13.18;;;2.47;;
46651;SDS011;32377;52.182;5.398;2022-10-16T12:36:31;11.68;;;2.53;;
46651;SDS011;32377;52.182;5.398;2022-10-16T12:38:59;10.10;;;2.70;;
46651;SDS011;32377;52.182;5.398;2022-10-16T12:41:27;13.40;;;2.67;;
46651;SDS011;32377;52.182;5.398;2022-10-16T12:43:54;15.02;;;2.47;;
46651;SDS011;32377;52.182;5.398;2022-10-16T12:46:39;11.60;;;2.13;;
46651;SDS011;32377;52.182;5.398;2022-10-16T12:49:06;11.25;;;2.22;;
46651;SDS011;32377;52.182;5.398;2022-10-16T12:51:38;9.88;;;2.22;;
46651;SDS011;32377;52.182;5.398;2022-10-16T12:54:11;9.07;;;2.20;;
46651;SDS011;32377;52.182;5.398;2022-10-16T12:59:48;9.32;;;2.08;;
46651;SDS011;32377;52.182;5.398;2022-10-16T13:10:38;9.93;;;2.47;;
46651;SDS011;32377;52.182;5.398;2022-10-16T13:13:30;11.13;;;2.47;;
46651;SDS011;32377;52.182;5.398;2022-10-16T13:22:05;9.60;;;2.78;;
46651;SDS011;32377;52.182;5.398;2022-10-16T13:24:56;12.77;;;2.30;;
46651;SDS011;32377;52.182;5.398;2022-10-16T13:27:33;11.40;;;2.10;;
46651;SDS011;32377;52.182;5.398;2022-10-16T13:30:16;16.35;;;1.83;;
46651;SDS011;32377;52.182;5.398;2022-10-16T13:32:47;11.68;;;2.45;;
46651;SDS011;32377;52.182;5.398;2022-10-16T13:35:29;12.05;;;2.20;;
46651;SDS011;32377;52.182;5.398;2022-10-16T13:38:08;11.60;;;2.25;;
46651;SDS011;32377;52.182;5.398;2022-10-16T13:40:48;15.13;;;2.10;;
46651;SDS011;32377;52.182;5.398;2022-10-16T13:43:18;7.68;;;1.90;;
46651;SDS011;32377;52.182;5.398;2022-10-16T13:46:47;10.07;;;1.98;;
46651;SDS011;32377;52.182;5.398;2022-10-16T13:48:43;8.40;;;2.50;;
46651;SDS011;32377;52.182;5.398;2022-10-16T13:51:13;17.00;;;2.60;;
46651;SDS011;32377;52.182;5.398;2022-10-16T13:53:43;11.97;;;2.20;;
46651;SDS011;32377;52.182;5.398;2022-10-16T13:56:11;15.38;;;2.67;;
46651;SDS011;32377;52.182;5.398;2022-10-16T13:58:45;7.32;;;1.90;;
46651;SDS011;32377;52.182;5.398;2022-10-16T14:01:16;13.60;;;2.30;;
46651;SDS011;32377;52.182;5.398;2022-10-16T14:03:48;16.90;;;3.13;;
46651;SDS011;32377;52.182;5.398;2022-10-16T14:06:15;12.57;;;1.90;;
46651;SDS011;32377;52.182;5.398;2022-10-16T14:08:48;6.85;;;2.05;;
46651;SDS011;32377;52.182;5.398;2022-10-16T14:11:21;12.52;;;2.35;;
46651;SDS011;32377;52.182;5.398;2022-10-16T14:13:48;8.05;;;2.00;;
46651;SDS011;32377;52.182;5.398;2022-10-16T14:16:20;10.75;;;2.10;;
46651;SDS011;32377;52.182;5.398;2022-10-16T14:18:51;7.82;;;1.77;;
46651;SDS011;32377;52.182;5.398;2022-10-16T14:21:19;11.30;;;2.53;;
46651;SDS011;32377;52.182;5.398;2022-10-16T14:23:45;9.50;;;1.90;;
46651;SDS011;32377;52.182;5.398;2022-10-16T14:28:38;8.52;;;2.25;;
46651;SDS011;32377;52.182;5.398;2022-10-16T14:34:02;18.27;;;2.88;;
46651;SDS011;32377;52.182;5.398;2022-10-16T14:36:33;10.35;;;2.40;;
46651;SDS011;32377;52.182;5.398;2022-10-16T14:39:00;13.55;;;2.22;;
46651;SDS011;32377;52.182;5.398;2022-10-16T14:41:29;10.35;;;2.22;;
46651;SDS011;32377;52.182;5.398;2022-10-16T14:44:03;16.13;;;2.17;;
46651;SDS011;32377;52.182;5.398;2022-10-16T14:46:34;11.20;;;2.08;;
46651;SDS011;32377;52.182;5.398;2022-10-16T14:49:13;15.82;;;2.55;;
46651;SDS011;32377;52.182;5.398;2022-10-16T14:51:42;11.55;;;2.75;;
46651;SDS011;32377;52.182;5.398;2022-10-16T14:54:09;13.18;;;3.50;;
46651;SDS011;32377;52.182;5.398;2022-10-16T14:56:42;11.02;;;3.85;;
46651;SDS011;32377;52.182;5.398;2022-10-16T14:59:19;11.05;;;2.08;;
46651;SDS011;32377;52.182;5.398;2022-10-16T15:01:56;12.68;;;2.33;;
46651;SDS011;32377;52.182;5.398;2022-10-16T15:04:22;14.70;;;2.35;;
46651;SDS011;32377;52.182;5.398;2022-10-16T15:06:48;12.00;;;2.05;;
46651;SDS011;32377;52.182;5.398;2022-10-16T15:09:13;11.90;;;2.22;;
46651;SDS011;32377;52.182;5.398;2022-10-16T15:11:39;13.13;;;2.33;;
46651;SDS011;32377;52.182;5.398;2022-10-16T15:14:05;7.63;;;2.05;;
46651;SDS011;32377;52.182;5.398;2022-10-16T15:16:31;15.38;;;2.50;;
46651;SDS011;32377;52.182;5.398;2022-10-16T15:18:56;14.05;;;2.67;;
46651;SDS011;32377;52.182;5.398;2022-10-16T15:21:29;12.02;;;2.22;;
46651;SDS011;32377;52.182;5.398;2022-10-16T15:23:57;15.32;;;3.22;;
46651;SDS011;32377;52.182;5.398;2022-10-16T15:26:24;10.20;;;2.03;;
46651;SDS011;32377;52.182;5.398;2022-10-16T15:28:50;12.65;;;3.10;;
46651;SDS011;32377;52.182;5.398;2022-10-16T15:31:16;11.23;;;2.78;;
46651;SDS011;32377;52.182;5.398;2022-10-16T15:33:42;17.17;;;4.78;;
46651;SDS011;32377;52.182;5.398;2022-10-16T15:36:08;14.60;;;4.30;;
46651;SDS011;32377;52.182;5.398;2022-10-16T15:38:34;15.65;;;5.07;;
46651;SDS011;32377;52.182;5.398;2022-10-16T15:40:59;24.63;;;7.78;;
46651;SDS011;32377;52.182;5.398;2022-10-16T15:43:25;27.15;;;8.80;;
46651;SDS011;32377;52.182;5.398;2022-10-16T15:45:58;91.60;;;38.65;;
46651;SDS011;32377;52.182;5.398;2022-10-16T15:48:26;70.88;;;28.42;;
46651;SDS011;32377;52.182;5.398;2022-10-16T15:50:52;49.95;;;20.38;;
46651;SDS011;32377;52.182;5.398;2022-10-16T15:53:17;37.17;;;12.65;;
46651;SDS011;32377;52.182;5.398;2022-10-16T15:55:43;24.88;;;10.15;;
46651;SDS011;32377;52.182;5.398;2022-10-16T15:58:09;17.40;;;3.72;;
46651;SDS011;32377;52.182;5.398;2022-10-16T16:00:34;8.35;;;2.90;;
46651;SDS011;32377;52.182;5.398;2022-10-16T16:03:00;16.55;;;2.80;;
46651;SDS011;32377;52.182;5.398;2022-10-16T16:05:25;11.15;;;2.90;;
46651;SDS011;32377;52.182;5.398;2022-10-16T16:07:52;13.55;;;3.42;;
46651;SDS011;32377;52.182;5.398;2022-10-16T16:10:18;12.68;;;3.08;;
46651;SDS011;32377;52.182;5.398;2022-10-16T16:12:46;15.05;;;3.50;;
46651;SDS011;32377;52.182;5.398;2022-10-16T16:15:16;9.75;;;3.03;;
46651;SDS011;32377;52.182;5.398;2022-10-16T16:17:42;15.07;;;3.88;;
46651;SDS011;32377;52.182;5.398;2022-10-16T16:20:09;12.55;;;4.00;;
46651;SDS011;32377;52.182;5.398;2022-10-16T16:22:35;19.23;;;4.38;;
46651;SDS011;32377;52.182;5.398;2022-10-16T16:25:01;16.25;;;4.65;;
46651;SDS011;32377;52.182;5.398;2022-10-16T16:27:27;11.43;;;3.88;;
46651;SDS011;32377;52.182;5.398;2022-10-16T16:29:54;11.38;;;3.78;;
46651;SDS011;32377;52.182;5.398;2022-10-16T16:32:20;13.98;;;4.07;;
46651;SDS011;32377;52.182;5.398;2022-10-16T16:34:46;16.15;;;3.70;;
46651;SDS011;32377;52.182;5.398;2022-10-16T16:37:12;11.07;;;3.42;;
46651;SDS011;32377;52.182;5.398;2022-10-16T16:39:38;13.68;;;3.53;;
46651;SDS011;32377;52.182;5.398;2022-10-16T16:42:03;12.75;;;3.88;;
46651;SDS011;32377;52.182;5.398;2022-10-16T16:44:31;18.02;;;4.45;;
46651;SDS011;32377;52.182;5.398;2022-10-16T16:46:57;14.65;;;3.80;;
46651;SDS011;32377;52.182;5.398;2022-10-16T16:49:23;14.73;;;3.95;;
46651;SDS011;32377;52.182;5.398;2022-10-16T16:51:49;14.55;;;3.88;;